Latest Weather Observations for Gabo Island

IDV60801

Issued at 8:32 am EST Saturday 24 August 2019 (issued every 10 minutes, with the page automatically refreshed every 10 minutes)

About weather observations | Map of weather stations | Latest weather observations for VIC | Other Formats
Station Details ID: 084016 Name: GABO ISLAND LIGHTHOUSE Lat: -37.57 Lon: 149.92 Height: 15.2 m
Data from the previous 72 hours. | See also: Recent months at Gabo Island
Date/Time
EST
Temp
°C
App
Temp
°C
Dew
Point
°C
Rel
Hum
%
Delta-T
°C
Wind Press
QNH
hPa
Press
MSL
hPa
Rain since
9am
mm
Dir  Spd
km/h
Gust
km/h
Spd
kts
Gust
kts
24/08:30am 11.1 7.9 4.9 65 2.8 W 11 13 6 7 1017.2 1017.2 0.0
24/08:00am 10.5 6.7 3.7 63 3.0 WNW 13 15 7 8 1017.1 1017.1 0.0
24/07:30am 8.8 3.9 2.1 63 2.8 WNW 17 17 9 9 1016.9 1016.9 0.0
24/07:00am 8.0 3.3 3.0 71 2.1 WNW 17 19 9 10 1016.8 1016.8 0.0
24/06:30am 6.7 1.7 1.5 69 2.1 WNW 17 20 9 11 1016.7 1016.7 0.0
24/06:00am 6.9 1.5 1.1 66 2.3 NW 19 20 10 11 1016.6 1016.6 0.0
24/05:30am 7.7 2.8 2.1 67 2.3 NW 17 19 9 10 1016.6 1016.6 0.0
24/05:00am 7.4 3.1 5.1 85 1.0 NW 17 20 9 11 1016.5 1016.5 0.0
24/04:30am 7.3 2.3 4.8 84 1.1 NW 20 24 11 13 1016.5 1016.5 0.0
24/04:00am 7.5 2.7 5.7 88 0.8 NW 20 26 11 14 1016.6 1016.6 0.0
24/03:30am 7.7 3.6 6.2 90 0.7 W 17 20 9 11 1016.4 1016.4 0.0
24/03:00am 7.9 3.4 6.1 88 0.8 NNW 19 24 10 13 1016.4 1016.4 0.0
24/02:30am 8.8 4.7 6.4 85 1.1 W 17 19 9 10 1016.4 1016.4 0.0
24/02:00am 9.2 4.8 6.4 83 1.3 NNW 19 20 10 11 1016.5 1016.5 0.0
24/01:30am 9.0 4.5 6.2 82 1.3 NW 19 22 10 12 1017.1 1017.1 0.0
24/01:00am 9.5 4.9 6.5 81 1.4 NW 20 24 11 13 1017.7 1017.7 0.0
24/12:30am 9.4 4.8 6.6 83 1.3 NNW 20 26 11 14 1018.0 1018.0 0.0
24/12:00am 8.9 4.3 6.3 84 1.2 NNW 20 24 11 13 1018.5 1018.5 0.0
 
Date/Time
EST
Temp
°C
App
Temp
°C
Dew
Point
°C
Rel
Hum
%
Delta-T
°C
Wind Press
QNH
hPa
Press
MSL
hPa
Rain since
9am
mm
Dir  Spd
km/h
Gust
km/h
Spd
kts
Gust
kts
23/11:30pm 8.5 4.4 6.1 85 1.1 N 17 20 9 11 1018.9 1018.9 0.0
23/11:00pm 8.5 4.4 6.1 85 1.1 WNW 17 20 9 11 1019.1 1019.1 0.0
23/10:30pm 9.1 4.6 7.0 87 1.0 W 20 24 11 13 1019.2 1019.2 0.0
23/10:00pm 9.6 5.7 7.0 84 1.2 NW 17 19 9 10 1019.1 1019.1 0.0
23/09:30pm 11.4 8.8 7.7 78 1.8 SSW 11 13 6 7 1019.0 1019.0 0.0
23/09:00pm 10.5 9.8 7.1 79 1.6 CALM 0 0 0 0 1019.1 1019.1 0.0
23/08:30pm 10.4 8.3 6.8 78 1.7 WNW 7 9 4 5 1019.4 1019.4 0.0
23/08:00pm 9.7 7.0 5.8 77 1.8 N 9 11 5 6 1019.7 1019.7 0.0
23/07:30pm 10.4 6.1 6.8 78 1.7 N 19 20 10 11 1019.6 1019.6 0.0
23/07:00pm 10.7 6.0 5.9 72 2.2 N 20 24 11 13 1019.5 1019.5 0.0
23/06:30pm 11.1 6.3 5.7 69 2.5 NNE 20 24 11 13 1019.6 1019.6 0.0
23/06:00pm 11.8 6.7 6.0 67 2.7 NNE 22 26 12 14 1019.8 1019.8 0.0
23/05:30pm 12.2 6.5 6.5 68 2.7 NNE 26 32 14 17 1019.9 1019.9 0.0
23/05:00pm 12.7 5.6 6.4 65 3.0 NNE 33 41 18 22 1019.9 1019.9 0.0
23/04:30pm 12.9 5.8 6.4 64 3.1 NNE 33 41 18 22 1020.1 1020.1 0.0
23/04:00pm 13.2 5.7 6.5 64 3.2 NNE 35 43 19 23 1020.3 1020.3 0.0
23/03:30pm 13.1 5.3 6.6 64 3.1 NE 37 44 20 24 1020.3 1020.3 0.0
23/03:00pm 13.2 5.7 6.2 62 3.3 NE 35 44 19 24 1020.6 1020.6 0.0
23/02:30pm 13.3 5.7 5.9 61 3.5 NE 35 41 19 22 1021.0 1021.0 0.0
23/02:00pm 13.7 6.8 4.6 54 4.2 NE 30 39 16 21 1021.4 1021.4 0.0
23/01:30pm 13.1 7.4 2.9 50 4.5 NE 22 28 12 15 1021.9 1021.9 0.0
23/01:00pm 12.5 8.2 3.5 54 4.0 ENE 15 22 8 12 1022.5 1022.5 0.0
23/12:30pm 12.8 9.4 1.8 47 4.7 E 9 11 5 6 1023.1 1023.1 0.0
23/12:00pm 12.2 9.0 2.8 52 4.1 S 9 13 5 7 1023.3 1023.3 0.0
23/11:30am 11.8 8.1 2.2 52 4.1 SSW 11 15 6 8 1023.9 1023.9 0.0
23/11:00am 11.9 7.7 1.5 49 4.4 W 13 19 7 10 1024.5 1024.5 0.0
23/10:30am 12.0 7.1 1.9 50 4.3 W 17 20 9 11 1024.9 1024.9 0.0
23/10:00am 11.2 5.9 1.7 52 4.0 W 19 26 10 14 1025.1 1025.1 0.0
23/09:30am 10.7 4.8 1.6 53 3.8 W 22 30 12 16 1025.2 1025.2 0.0
23/09:00am 10.1 3.4 1.4 55 3.6 W 26 33 14 18 1025.3 1025.3 0.0
23/08:30am 9.7 2.3 2.0 58 3.2 W 30 43 16 23 1025.4 1025.4 0.0
23/08:00am 9.2 1.8 2.0 60 3.0 W 30 39 16 21 1025.3 1025.3 0.0
23/07:30am 9.0 1.0 1.7 60 3.0 W 33 43 18 23 1025.0 1025.0 0.0
23/07:00am 8.9 -0.2 1.9 61 2.9 W 39 46 21 25 1024.8 1024.8 0.0
23/06:30am 8.6 -0.2 1.5 61 2.9 W 37 46 20 25 1024.4 1024.4 0.0
23/06:00am 9.0 0.8 2.6 64 2.7 W 35 44 19 24 1024.3 1024.3 0.0
23/05:30am 9.1 0.1 2.4 63 2.8 W 39 46 21 25 1023.9 1023.9 0.0
23/05:00am 9.1 1.2 2.4 63 2.8 W 33 41 18 22 1023.9 1023.9 0.0
23/04:30am 9.2 0.9 2.3 62 2.9 W 35 44 19 24 1023.7 1023.7 0.0
23/04:00am 9.4 0.8 2.5 62 2.9 W 37 46 20 25 1023.5 1023.5 0.0
23/03:30am 9.4 0.7 2.2 61 3.0 W 37 46 20 25 1023.4 1023.4 0.0
23/03:00am 9.6 1.5 3.1 64 2.8 W 35 44 19 24 1023.5 1023.5 0.0
23/02:30am 9.9 1.4 3.4 64 2.8 W 37 48 20 26 1023.5 1023.5 0.0
23/02:00am 9.9 1.4 3.4 64 2.8 WSW 37 50 20 27 1023.7 1023.7 0.0
23/01:30am 9.9 1.5 3.7 65 2.7 W 37 46 20 25 1023.8 1023.8 0.0
23/01:00am 10.4 2.8 4.0 64 2.8 W 33 43 18 23 1023.8 1023.8 0.0
23/12:30am 10.6 2.2 3.5 61 3.1 WSW 37 52 20 28 1023.8 1023.8 0.0
23/12:00am 11.2 1.4 3.2 58 3.5 WSW 44 54 24 29 1023.4 1023.4 0.0
 
Date/Time
EST
Temp
°C
App
Temp
°C
Dew
Point
°C
Rel
Hum
%
Delta-T
°C
Wind Press
QNH
hPa
Press
MSL
hPa
Rain since
9am
mm
Dir  Spd
km/h
Gust
km/h
Spd
kts
Gust
kts
22/11:30pm 11.1 1.2 3.0 57 3.5 WSW 44 57 24 31 1023.5 1023.5 0.0
22/11:00pm 11.3 1.6 4.1 61 3.2 WSW 44 56 24 30 1023.3 1023.3 0.0
22/10:30pm 11.0 2.9 3.5 60 3.3 WSW 35 44 19 24 1023.2 1023.2 0.0
22/10:01pm 11.1 1.6 4.1 62 3.1 WSW 43 61 23 33 1023.1 1023.1 0.0
22/10:00pm 11.2 1.6 4.3 62 3.1 WSW 44 61 24 33 1023.1 1023.1 0.0
22/09:59pm 11.2 1.6 4.5 63 3.0 SW 44 63 24 34 1023.2 1023.2 0.0
22/09:30pm 11.5 -0.3 3.0 56 3.7 SW 54 65 29 35 1022.8 1022.8 0.0
22/09:00pm 11.6 0.1 4.5 61 3.2 SW 54 67 29 36 1022.6 1022.6 0.0
22/08:30pm 11.6 0.4 4.2 60 3.3 SW 52 63 28 34 1022.3 1022.3 0.0
22/08:00pm 11.5 0.3 4.1 60 3.3 SW 52 63 28 34 1022.0 1022.0 0.0
22/07:30pm 11.4 -0.4 2.9 56 3.7 SW 54 65 29 35 1021.6 1021.6 0.0
22/07:00pm 11.7 -0.1 3.0 55 3.8 SW 54 61 29 33 1021.4 1021.4 0.0
22/06:30pm 11.5 -0.9 2.7 54 3.8 SW 57 69 31 37 1020.9 1020.9 0.0
22/06:00pm 11.5 -1.5 3.6 58 3.5 SSW 61 72 33 39 1020.5 1020.5 0.0
22/05:30pm 11.5 -1.6 2.7 54 3.8 SW 61 76 33 41 1019.8 1019.8 0.0
22/05:08pm 10.7 -1.2 4.4 65 2.8 SW 56 74 30 40 1019.6 1019.6 0.0
22/05:00pm 11.0 -1.8 4.8 65 2.8 SW 61 74 33 40 1019.4 1019.4 0.0
22/04:30pm 10.9 -1.5 4.7 65 2.8 SW 59 91 32 49 1019.0 1019.0 0.0
22/04:21pm 10.6 -4.2 2.1 55 3.6 SW 69 91 37 49 1018.7 1018.7 0.0
22/04:00pm 11.3 -1.8 2.7 55 3.7 SW 61 78 33 42 1018.3 1018.3 0.0
22/03:30pm 11.4 -2.2 4.5 62 3.1 SW 65 83 35 45 1018.2 1018.2 0.0
22/03:26pm 11.7 -1.5 4.4 61 3.3 SW 63 83 34 45 1018.0 1018.0 0.0
22/03:00pm 11.4 -0.9 11.4 100 0.0 SW 67 83 36 45 1017.5 1017.5 0.0
22/02:30pm 11.3 -1.0 11.3 100 0.0 SW 67 83 36 45 1017.1 1017.1 0.0
22/02:00pm 10.2 -3.0 10.2 100 0.0 SW 70 89 38 48 1016.5 1016.5 0.0
22/01:35pm 11.5 -0.8 11.5 100 0.0 SW 67 85 36 46 1016.2 1016.2 0.0
22/01:30pm 11.8 -0.7 11.8 100 0.0 SW 69 85 37 46 1016.0 1016.0 0.0
22/01:11pm 11.8 -1.3 11.8 100 0.0 SW 72 91 39 49 1015.7 1015.7 0.0
22/01:00pm 11.8 -0.7 11.8 100 0.0 SW 69 83 37 45 1015.6 1015.6 0.0
22/12:44pm 11.8 -1.7 11.8 100 0.0 SW 74 93 40 50 1015.5 1015.5 0.0
22/12:30pm 12.0 -1.1 12.0 100 0.0 SW 72 87 39 47 1015.4 1015.4 0.0
22/12:00pm 12.2 0.1 12.0 99 0.1 SW 67 85 36 46 1015.1 1015.1 0.0
22/11:44am 12.0 -1.1 12.0 100 0.0 SW 72 91 39 49 1015.1 1015.1 0.0
22/11:30am 11.9 -1.6 11.9 100 0.0 SW 74 91 40 49 1014.9 1014.9 0.0
22/11:00am 11.7 -1.5 11.5 99 0.1 SW 72 91 39 49 1014.6 1014.6 0.0
22/10:30am 11.7 -1.4 11.7 100 0.0 SW 72 93 39 50 1014.1 1014.1 0.0
22/10:00am 11.1 -3.0 11.1 100 0.0 SW 76 96 41 52 1013.7 1013.7 0.0
22/09:30am 11.6 -1.3 11.4 99 0.1 SW 70 89 38 48 1013.2 1013.2 0.0
22/09:00am 11.4 -3.4 11.4 100 0.0 SW 80 98 43 53 1012.8 1012.8 4.2
22/08:30am 10.9 -5.3 10.9 100 0.0 SW 87 107 47 58 1011.8 1011.8 4.2
22/08:14am 10.4 -4.5 9.4 93 0.5 SW 78 102 42 55 1011.6 1011.6 4.0
22/08:12am 10.6 -4.7 9.4 92 0.6 SW 80 102 43 55 1011.6 1011.6 4.0
22/08:00am 9.8 -8.1 7.3 84 1.2 SW 91 135 49 73 1011.2 1011.2 3.8
22/07:51am 6.6 -12.2 6.6 100 0.0 SW 95 135 51 73 1011.0 1011.0 3.8
22/07:30am 8.2 -8.4 8.2 100 0.0 SW 85 111 46 60 1010.4 1010.4 3.6
22/07:00am 10.2 -5.8 10.2 100 0.0 WSW 85 107 46 58 1009.5 1009.5 1.6
22/06:30am 10.6 -5.0 10.6 100 0.0 WSW 83 109 45 59 1008.7 1008.7 1.6
22/06:00am 11.2 -4.2 11.2 100 0.0 SW 83 109 45 59 1008.4 1008.4 1.6
22/05:30am 10.8 -5.5 10.8 100 0.0 WSW 87 117 47 63 1007.8 1007.8 1.6
22/05:00am 10.6 -5.3 10.6 100 0.0 WSW 85 109 46 59 1007.0 1007.0 1.6
22/04:30am 10.5 -4.7 9.9 96 0.3 WSW 80 102 43 55 1006.7 1006.7 1.2
22/04:00am 11.8 -4.9 11.8 100 0.0 WSW 91 115 49 62 1005.8 1005.8 0.4
22/03:30am 12.2 -3.7 9.2 82 1.5 WSW 83 104 45 56 1004.9 1004.9 0.4
22/03:10am 12.2 -4.3 6.8 69 2.6 WSW 83 120 45 65 1004.9 1004.9 0.4
22/03:00am 12.1 -2.9 7.4 73 2.3 WSW 76 102 41 55 1004.8 1004.8 0.4
22/02:30am 13.1 -3.4 6.2 63 3.3 WSW 82 109 44 59 1004.6 1004.6 0.4
22/02:04am 13.4 -1.9 6.1 61 3.5 WSW 76 109 41 59 1004.9 1004.9 0.4
22/02:00am 13.4 -0.9 7.3 66 3.0 WSW 72 91 39 49 1004.9 1004.9 0.4
22/01:30am 13.0 0.9 7.9 71 2.5 WSW 61 87 33 47 1005.3 1005.3 0.4
22/01:00am 12.9 1.1 7.6 70 2.6 WSW 59 82 32 44 1005.3 1005.3 0.2
22/12:30am 14.6 2.3 5.3 53 4.4 W 59 83 32 45 1004.9 1004.9 0.2
22/12:21am 14.5 2.2 5.2 53 4.4 WSW 59 80 32 43 1004.8 1004.8 0.2
22/12:18am 14.5 2.5 4.9 52 4.5 W 57 80 31 43 1004.8 1004.8 0.2
22/12:09am 14.3 5.0 5.2 54 4.3 W 43 65 23 35 1005.1 1005.1 0.2
22/12:00am 14.1 4.9 5.4 56 4.1 W 43 54 23 29 1005.0 1005.0 0.2
 
Date/Time
EST
Temp
°C
App
Temp
°C
Dew
Point
°C
Rel
Hum
%
Delta-T
°C
Wind Press
QNH
hPa
Press
MSL
hPa
Rain since
9am
mm
Dir  Spd
km/h
Gust
km/h
Spd
kts
Gust
kts
21/11:35pm 13.9 4.5 4.6 53 4.3 W 43 69 23 37 1005.5 1005.5 0.2
21/11:30pm 13.8 4.6 5.3 56 4.0 W 43 57 23 31 1005.8 1005.8 0.2
21/11:22pm 13.6 5.0 4.8 55 4.1 W 39 57 21 31 1006.1 1006.1 0.2
21/11:00pm 12.8 5.3 6.3 64 3.1 W 35 44 19 24 1006.6 1006.6 0.2
21/10:30pm 12.6 4.3 6.1 64 3.1 W 39 52 21 28 1007.5 1007.5 0.2
21/10:00pm 12.8 5.8 6.0 63 3.2 W 32 39 17 21 1008.3 1008.3 0.2
21/09:30pm 12.9 4.4 6.9 67 2.9 WSW 41 54 22 29 1008.8 1008.8 0.2
21/09:00pm 12.9 4.0 6.7 66 3.0 WSW 43 52 23 28 1009.6 1009.6 0.2
21/08:30pm 12.9 3.4 6.7 66 3.0 WSW 46 61 25 33 1009.8 1009.8 0.2
21/08:24pm 13.1 4.2 6.9 66 3.0 WSW 43 61 23 33 1009.8 1009.8 0.2
21/08:00pm 13.1 2.8 6.4 64 3.2 WSW 50 67 27 36 1010.2 1010.2 0.2
21/07:30pm 13.0 2.8 7.0 67 2.9 WSW 50 65 27 35 1010.4 1010.4 0.2
21/07:00pm 13.0 2.2 7.5 69 2.7 SW 54 72 29 39 1010.4 1010.4 0.2
21/06:30pm 13.3 0.5 6.2 62 3.4 SW 63 82 34 44 1010.4 1010.4 0.2
21/06:08pm 13.5 0.7 4.3 53 4.2 WSW 61 82 33 44 1010.4 1010.4 0.2
21/06:00pm 13.3 1.3 4.6 55 4.0 WSW 57 74 31 40 1010.3 1010.3 0.2
21/05:36pm 13.5 1.0 4.3 53 4.2 WSW 59 82 32 44 1010.7 1010.7 0.2
21/05:30pm 13.6 1.1 4.2 53 4.3 WSW 59 72 32 39 1010.8 1010.8 0.2
21/05:00pm 13.8 -0.2 4.2 52 4.4 WSW 67 89 36 48 1010.2 1010.2 0.2
21/04:53pm 13.9 0.9 3.5 49 4.7 WSW 61 80 33 43 1010.1 1010.1 0.2
21/04:30pm 13.6 0.9 5.3 57 3.9 WSW 61 76 33 41 1009.8 1009.8 0.2
21/04:00pm 14.1 0.5 4.3 51 4.5 WSW 65 89 35 48 1009.7 1009.7 0.2
21/03:35pm 14.3 0.0 4.9 53 4.4 WSW 69 91 37 49 1009.7 1009.7 0.2
21/03:30pm 14.3 0.5 5.1 54 4.3 WSW 67 83 36 45 1009.7 1009.7 0.2
21/03:01pm 14.3 2.7 6.7 60 3.7 WSW 57 80 31 43 1009.6 1009.6 0.2
21/03:00pm 14.3 2.8 6.9 61 3.6 WSW 57 72 31 39 1009.6 1009.6 0.2
21/02:30pm 14.6 0.5 3.9 48 4.9 WSW 67 96 36 52 1009.5 1009.5 0.2
21/02:00pm 14.2 1.0 6.3 59 3.8 SW 65 85 35 46 1009.9 1009.9 0.2
21/01:40pm 13.7 0.5 8.1 69 2.8 SW 67 85 36 46 1010.1 1010.1 0.2
21/01:30pm 14.0 0.0 6.3 60 3.7 WSW 69 85 37 46 1009.8 1009.8 0.2
21/01:02pm 14.5 -0.4 4.3 50 4.7 WSW 72 95 39 51 1009.7 1009.7 0.2
21/01:00pm 14.6 0.5 6.6 58 3.9 WSW 70 87 38 47 1009.9 1009.9 0.2
21/12:30pm 14.1 0.1 6.2 59 3.8 WSW 69 87 37 47 1010.1 1010.1 0.2
21/12:00pm 14.1 0.1 6.2 59 3.8 WSW 69 102 37 55 1010.5 1010.5 0.2
21/11:30am 13.8 -0.7 6.3 60 3.6 WSW 72 93 39 50 1010.5 1010.5 0.0
21/11:00am 14.1 1.0 6.7 61 3.6 WSW 65 85 35 46 1010.7 1010.7 0.0
21/10:30am 13.7 -0.6 7.4 65 3.1 WSW 72 91 39 49 1010.5 1010.5 0.0
21/10:21am 14.1 0.6 8.1 67 3.0 WSW 69 93 37 50 1010.7 1010.7 0.0
21/10:19am 14.0 0.3 7.5 65 3.2 WSW 69 93 37 50 1010.5 1010.5 0.0
21/10:02am 13.7 2.5 8.3 70 2.7 WSW 57 76 31 41 1010.7 1010.7 0.0
21/10:00am 13.9 2.3 8.3 69 2.8 WSW 59 76 32 41 1010.7 1010.7 0.0
21/09:30am 13.5 2.4 8.7 73 2.4 WSW 57 78 31 42 1010.1 1010.1 0.0
21/09:06am 13.0 1.2 9.0 77 2.0 WSW 61 80 33 43 1010.0 1010.0 0.0
21/09:00am 13.0 1.3 9.3 78 1.9 WSW 61 78 33 42 1010.0 1010.0 5.4

Other formats

Comma delimited format used in spreadsheet applications
http://www.bom.gov.au/fwo/IDV60801/IDV60801.94933.axf

JavaScript Object Notation format (JSON) in row-major order
http://www.bom.gov.au/fwo/IDV60801/IDV60801.94933.json

Data quality

Most of these data are generated automatically and are frequently updated. Quality checks on data are not normally performed. It is possible for incorrect values to appear. Refer to information at About Latest Weather Observations and please check the disclaimer before using these data.